Time;durP1;ratioP1;P1;durP2;ratioP2;P2;SDS_P1;SDS_P2;PMS_P1;PMS_P2;Temp;Humidity;BMP_temperature;BMP_pressure;BME280_temperature;BME280_humidity;BME280_pressure;Samples;Min_cycle;Max_cycle;Signal;HPM_P1;HPM_P2
2022/12/01 00:03:50;;;;;;;58.13;29.00;;;0.40;99.90;;;;;;8374187;28;20213;-78
2022/12/01 00:07:51;;;;;;;59.93;31.63;;;0.30;99.90;;;;;;8373189;28;20561;-79
2022/12/01 00:11:52;;;;;;;58.37;30.60;;;0.30;99.90;;;;;;8370020;28;20178;-78
2022/12/01 00:15:53;;;;;;;65.30;32.17;;;0.40;99.90;;;;;;8368826;28;20513;-78
2022/12/01 00:19:54;;;;;;;58.70;28.23;;;0.40;99.90;;;;;;8370779;28;20185;-78
2022/12/01 00:23:56;;;;;;;58.90;29.43;;;0.30;99.90;;;;;;8373384;28;20237;-79
2022/12/01 00:27:57;;;;;;;54.07;29.37;;;0.40;99.90;;;;;;8367835;28;20261;-78
2022/12/01 00:31:58;;;;;;;58.47;29.33;;;0.50;99.90;;;;;;8371419;28;20216;-78
2022/12/01 00:36:00;;;;;;;54.00;25.80;;;0.40;99.90;;;;;;8371782;28;20212;-78
2022/12/01 00:40:00;;;;;;;57.80;29.80;;;0.40;99.90;;;;;;8371756;28;20277;-78
2022/12/01 00:44:01;;;;;;;53.07;28.10;;;0.40;99.90;;;;;;8367786;28;20205;-79
2022/12/01 00:48:02;;;;;;;58.77;28.63;;;0.40;99.90;;;;;;8367054;28;20181;-78
2022/12/01 00:52:03;;;;;;;52.40;28.77;;;0.40;99.90;;;;;;8368394;28;20189;-78
2022/12/01 00:56:04;;;;;;;56.10;28.23;;;0.40;99.90;;;;;;8365107;28;20220;-79
2022/12/01 01:00:05;;;;;;;58.63;29.77;;;0.40;99.90;;;;;;8370708;28;20198;-79
2022/12/01 01:04:06;;;;;;;51.47;26.33;;;0.40;99.90;;;;;;8370658;28;20215;-79
2022/12/01 01:08:09;;;;;;;49.30;25.77;;;0.40;99.90;;;;;;8372412;28;20188;-79
2022/12/01 01:12:10;;;;;;;55.07;28.43;;;0.30;99.90;;;;;;8370333;28;20207;-79
2022/12/01 01:16:16;;;;;;;55.97;26.43;;;0.30;99.90;;;;;;8378041;28;20181;-79
2022/12/01 01:20:17;;;;;;;47.97;25.27;;;0.40;99.90;;;;;;8374206;28;20189;-80
2022/12/01 01:24:18;;;;;;;48.60;25.83;;;0.30;99.90;;;;;;8372317;28;20201;-79
2022/12/01 01:28:19;;;;;;;45.67;25.23;;;0.30;99.90;;;;;;8374221;28;20185;-79
2022/12/01 01:32:20;;;;;;;52.60;27.17;;;0.30;99.90;;;;;;8368966;28;20299;-78
2022/12/01 01:36:21;;;;;;;54.10;27.03;;;0.30;99.90;;;;;;8369547;28;20208;-79
2022/12/01 01:40:22;;;;;;;55.23;28.67;;;0.30;99.90;;;;;;8367586;28;20186;-79
2022/12/01 01:44:55;;;;;;;54.40;27.07;;;0.30;99.90;;;;;;8365347;28;20254;-79
2022/12/01 01:49:04;;;;;;;52.07;26.33;;;0.30;99.90;;;;;;8368619;28;20372;-79
2022/12/01 01:53:09;;;;;;;55.17;26.10;;;0.40;99.90;;;;;;8368666;28;20182;-79
2022/12/01 01:57:13;;;;;;;52.13;25.83;;;0.30;99.90;;;;;;8367087;28;20207;-79
2022/12/01 02:01:14;;;;;;;52.63;25.87;;;0.30;99.90;;;;;;8364373;28;20197;-79
2022/12/01 02:05:22;;;;;;;52.00;28.23;;;0.30;99.90;;;;;;8367651;28;20199;-79
2022/12/01 02:09:23;;;;;;;50.37;25.23;;;0.30;99.90;;;;;;8369541;28;20181;-79
2022/12/01 02:13:42;;;;;;;47.33;24.63;;;0.20;99.90;;;;;;8374732;28;20297;-78
2022/12/01 02:17:52;;;;;;;44.40;23.43;;;0.20;99.90;;;;;;8371378;28;20189;-77
2022/12/01 02:21:55;;;;;;;45.50;23.93;;;0.20;99.90;;;;;;8366401;28;20197;-78
2022/12/01 02:26:28;;;;;;;51.90;26.00;;;0.20;99.90;;;;;;8367875;28;20182;-80
2022/12/01 02:30:49;;;;;;;54.13;26.97;;;0.20;99.90;;;;;;8372917;28;20193;-79
2022/12/01 02:34:58;;;;;;;50.53;26.13;;;0.20;99.90;;;;;;8374235;28;20270;-80
2022/12/01 02:39:36;;;;;;;46.73;22.97;;;0.20;99.90;;;;;;8369544;28;20182;-80
2022/12/01 02:43:40;;;;;;;43.00;22.03;;;0.10;99.90;;;;;;8374086;28;20201;-80
2022/12/01 02:47:43;;;;;;;49.60;23.90;;;0.10;99.90;;;;;;8365934;28;20182;-80
2022/12/01 02:51:45;;;;;;;46.07;23.00;;;0.00;99.90;;;;;;8366508;28;20295;-80
2022/12/01 02:55:57;;;;;;;56.90;26.70;;;0.00;99.90;;;;;;8366172;28;20188;-80
2022/12/01 02:59:58;;;;;;;49.23;24.93;;;0.00;99.90;;;;;;8370274;28;20207;-80
2022/12/01 03:04:02;;;;;;;48.57;23.47;;;0.10;99.90;;;;;;8371147;28;20236;-79
2022/12/01 03:08:18;;;;;;;44.17;23.07;;;0.20;99.90;;;;;;8362426;28;20223;-80
2022/12/01 03:12:29;;;;;;;45.43;22.60;;;0.20;99.90;;;;;;8365785;28;20221;-80
2022/12/01 03:16:40;;;;;;;41.87;22.83;;;0.10;99.90;;;;;;8364208;28;20237;-80
2022/12/01 03:20:54;;;;;;;48.77;23.50;;;0.00;99.90;;;;;;8367588;28;20209;-79
2022/12/01 03:24:56;;;;;;;46.13;22.33;;;-0.10;99.90;;;;;;8374610;28;20174;-79
2022/12/01 03:29:04;;;;;;;38.23;21.40;;;-0.10;99.90;;;;;;8368893;28;20186;-80
2022/12/01 03:33:17;;;;;;;44.23;23.00;;;-0.10;99.90;;;;;;8363050;28;20476;-80
2022/12/01 03:37:42;;;;;;;47.37;24.07;;;-0.10;99.90;;;;;;8373393;28;20174;-80
2022/12/01 03:41:50;;;;;;;50.47;24.67;;;-0.10;99.90;;;;;;8366594;28;20205;-80
2022/12/01 03:46:13;;;;;;;40.33;23.07;;;-0.10;99.90;;;;;;8381063;28;20182;-80
2022/12/01 03:50:17;;;;;;;43.03;23.33;;;-0.10;99.90;;;;;;8367869;28;20253;-80
2022/12/01 03:54:30;;;;;;;49.17;26.23;;;-0.10;99.90;;;;;;8373050;28;20194;-79
2022/12/01 03:58:40;;;;;;;46.47;25.20;;;0.00;99.90;;;;;;8365934;28;20208;-80
2022/12/01 04:02:43;;;;;;;60.50;30.17;;;0.00;99.90;;;;;;8366077;28;20206;-79
2022/12/01 04:06:47;;;;;;;50.20;24.53;;;0.00;99.90;;;;;;8373075;28;20182;-79
2022/12/01 04:10:48;;;;;;;52.90;26.60;;;0.00;99.90;;;;;;8372168;28;20181;-80
2022/12/01 04:14:49;;;;;;;41.30;22.63;;;0.00;99.90;;;;;;8370548;28;20215;-80
2022/12/01 04:18:49;;;;;;;54.50;27.80;;;0.00;99.90;;;;;;8374006;28;20186;-81
2022/12/01 04:22:50;;;;;;;43.50;23.13;;;0.00;99.90;;;;;;8371328;28;20250;-80
2022/12/01 04:26:51;;;;;;;39.93;21.67;;;0.00;99.90;;;;;;8376887;28;20185;-80
2022/12/01 04:30:52;;;;;;;46.10;22.73;;;-0.10;99.90;;;;;;8365688;28;20197;-80
2022/12/01 04:34:52;;;;;;;47.67;22.63;;;-0.10;99.90;;;;;;8374071;28;20220;-79
2022/12/01 04:38:53;;;;;;;46.17;25.70;;;-0.10;99.90;;;;;;8370545;28;20185;-80
2022/12/01 04:42:55;;;;;;;43.33;22.70;;;-0.10;99.90;;;;;;8368942;28;20215;-80
2022/12/01 04:46:56;;;;;;;44.87;23.93;;;-0.10;99.90;;;;;;8364292;28;20169;-80
2022/12/01 04:50:57;;;;;;;47.53;24.03;;;-0.10;99.90;;;;;;8369747;28;20215;-80
2022/12/01 04:54:58;;;;;;;46.47;24.07;;;-0.10;99.90;;;;;;8366351;28;20300;-80
2022/12/01 04:58:59;;;;;;;53.30;26.40;;;-0.10;99.90;;;;;;8368170;28;20193;-79
2022/12/01 05:03:00;;;;;;;50.83;24.20;;;0.00;99.90;;;;;;8372618;28;20209;-79
2022/12/01 05:07:01;;;;;;;57.90;29.03;;;0.00;99.90;;;;;;8376320;28;20178;-78
2022/12/01 05:11:03;;;;;;;55.37;28.23;;;0.00;99.90;;;;;;8374041;28;20184;-78
2022/12/01 05:15:05;;;;;;;52.93;26.20;;;-0.10;99.90;;;;;;8375016;28;20210;-78
2022/12/01 05:23:27;;;;;;;45.70;23.60;;;-0.10;99.90;;;;;;8369870;28;20267;-78
2022/12/01 05:27:28;;;;;;;50.87;24.73;;;-0.20;99.90;;;;;;8385943;28;20243;-78
2022/12/01 05:31:30;;;;;;;48.77;24.20;;;-0.20;99.90;;;;;;8368431;28;20503;-78
2022/12/01 05:35:32;;;;;;;54.10;26.80;;;-0.20;99.90;;;;;;8365353;28;20201;-79
2022/12/01 05:39:33;;;;;;;55.53;27.10;;;-0.20;99.90;;;;;;8368198;28;20186;-79
2022/12/01 05:43:34;;;;;;;45.10;23.57;;;-0.10;99.90;;;;;;8365818;28;20224;-79
2022/12/01 05:47:35;;;;;;;61.40;31.40;;;-0.20;99.90;;;;;;8378789;28;20236;-79
2022/12/01 05:51:36;;;;;;;62.70;32.03;;;-0.20;99.90;;;;;;8375613;28;20397;-79
2022/12/01 05:55:37;;;;;;;62.30;30.33;;;-0.20;99.90;;;;;;8370827;28;20267;-79
2022/12/01 05:59:38;;;;;;;51.10;25.30;;;-0.20;99.90;;;;;;8372629;28;20205;-79
2022/12/01 06:03:39;;;;;;;59.73;30.87;;;-0.20;99.90;;;;;;8369922;28;20216;-80
2022/12/01 06:07:40;;;;;;;42.23;23.60;;;-0.30;99.90;;;;;;8372999;28;20289;-79
2022/12/01 06:11:40;;;;;;;40.20;21.73;;;-0.30;99.90;;;;;;8367536;28;20315;-79
2022/12/01 06:15:41;;;;;;;45.67;23.53;;;-0.30;99.90;;;;;;8372480;28;20204;-79
2022/12/01 06:19:42;;;;;;;47.80;24.03;;;-0.30;99.90;;;;;;8366266;28;20178;-80
2022/12/01 06:23:43;;;;;;;63.30;28.40;;;-0.30;99.90;;;;;;8370069;28;20259;-79
2022/12/01 06:27:44;;;;;;;59.43;29.60;;;-0.40;99.90;;;;;;8366555;28;20189;-79
2022/12/01 06:31:45;;;;;;;47.47;23.27;;;-0.40;99.90;;;;;;8368405;28;20223;-79
2022/12/01 06:35:46;;;;;;;43.67;24.57;;;-0.40;99.90;;;;;;8363300;28;20185;-78
2022/12/01 06:39:46;;;;;;;45.90;24.57;;;-0.40;99.90;;;;;;8371616;28;20275;-78
2022/12/01 06:43:47;;;;;;;38.90;21.57;;;-0.40;99.90;;;;;;8368943;28;20269;-78
2022/12/01 06:47:52;;;;;;;35.90;18.83;;;-0.30;99.90;;;;;;8366681;28;20185;-78
2022/12/01 06:51:53;;;;;;;35.53;19.30;;;-0.30;99.90;;;;;;8372773;28;20192;-78
2022/12/01 06:56:03;;;;;;;46.47;25.53;;;-0.30;99.90;;;;;;8373166;28;20296;-77
2022/12/01 07:00:05;;;;;;;40.33;22.27;;;-0.20;99.90;;;;;;8366993;28;20220;-78
2022/12/01 07:04:06;;;;;;;36.97;20.43;;;-0.20;99.90;;;;;;8365696;28;20286;-78
2022/12/01 07:08:07;;;;;;;42.63;22.77;;;-0.20;99.90;;;;;;8366314;28;20190;-78
2022/12/01 07:12:07;;;;;;;65.10;37.20;;;-0.20;99.90;;;;;;8366712;28;20192;-78
2022/12/01 07:16:08;;;;;;;42.60;22.60;;;-0.10;99.90;;;;;;8366427;28;20437;-78
2022/12/01 07:20:10;;;;;;;40.43;24.97;;;-0.10;99.90;;;;;;8366104;28;20276;-78
2022/12/01 07:24:14;;;;;;;44.50;24.50;;;-0.10;99.90;;;;;;8368002;28;20243;-78
2022/12/01 07:28:15;;;;;;;53.93;25.27;;;0.00;99.90;;;;;;8370015;28;20185;-79
2022/12/01 07:32:15;;;;;;;35.50;21.17;;;-0.10;99.90;;;;;;8371789;28;20239;-78
2022/12/01 07:36:16;;;;;;;35.03;21.07;;;-0.10;99.90;;;;;;8364571;28;20196;-78
2022/12/01 07:40:17;;;;;;;46.57;23.37;;;0.00;99.90;;;;;;8377367;28;20192;-79
2022/12/01 07:44:18;;;;;;;44.33;22.23;;;0.00;99.90;;;;;;8376092;28;20275;-77
2022/12/01 07:48:19;;;;;;;41.20;22.97;;;0.00;99.90;;;;;;8374413;28;20181;-80
2022/12/01 07:52:20;;;;;;;43.40;24.83;;;0.10;99.90;;;;;;8379174;28;20228;-81
2022/12/01 07:56:22;;;;;;;40.63;22.23;;;0.10;99.90;;;;;;8373464;28;20216;-81
2022/12/01 08:00:23;;;;;;;42.77;21.17;;;0.10;99.90;;;;;;8378561;28;20177;-81
2022/12/01 08:04:24;;;;;;;41.73;22.80;;;0.10;99.90;;;;;;8371482;28;20206;-81
2022/12/01 08:08:25;;;;;;;39.27;21.53;;;0.10;99.90;;;;;;8376227;28;20181;-81
2022/12/01 08:12:26;;;;;;;52.80;25.83;;;0.10;99.90;;;;;;8377671;28;20610;-78
2022/12/01 08:16:27;;;;;;;55.30;26.40;;;0.20;99.90;;;;;;8379005;28;20194;-78
2022/12/01 08:20:28;;;;;;;44.17;22.50;;;0.20;99.90;;;;;;8378721;28;20249;-78
2022/12/01 08:24:28;;;;;;;65.37;31.27;;;0.20;99.90;;;;;;8375116;28;20221;-78
2022/12/01 08:28:29;;;;;;;67.33;34.20;;;0.30;99.90;;;;;;8370792;28;20182;-78
2022/12/01 08:32:30;;;;;;;52.03;26.00;;;0.30;99.90;;;;;;8373704;28;20201;-77
2022/12/01 08:36:32;;;;;;;38.83;20.67;;;0.40;99.90;;;;;;8365151;28;20473;-79
2022/12/01 08:40:33;;;;;;;44.87;24.20;;;0.30;99.90;;;;;;8367762;28;20300;-78
2022/12/01 08:44:34;;;;;;;48.23;26.93;;;0.30;99.90;;;;;;8375838;28;20314;-78
2022/12/01 08:48:36;;;;;;;57.37;31.30;;;0.30;99.90;;;;;;8374407;28;20586;-78
2022/12/01 08:52:36;;;;;;;50.57;25.83;;;0.40;99.90;;;;;;8373865;28;20193;-77
2022/12/01 08:56:40;;;;;;;51.50;26.37;;;0.50;99.90;;;;;;8368515;28;20268;-78
2022/12/01 09:00:41;;;;;;;49.70;27.33;;;0.50;99.90;;;;;;8374039;28;20194;-78
2022/12/01 09:04:43;;;;;;;53.33;27.73;;;0.50;99.90;;;;;;8369719;28;20235;-77
2022/12/01 09:08:44;;;;;;;43.00;22.50;;;0.60;99.90;;;;;;8369117;28;20196;-78
2022/12/01 09:12:45;;;;;;;54.17;27.70;;;0.70;99.90;;;;;;8376131;28;20455;-78
2022/12/01 09:16:48;;;;;;;55.13;28.47;;;0.80;99.90;;;;;;8366180;28;20193;-78
2022/12/01 09:20:49;;;;;;;59.33;30.83;;;0.80;99.90;;;;;;8370723;28;20185;-77
2022/12/01 09:24:50;;;;;;;81.77;43.47;;;1.00;99.90;;;;;;8368025;28;20240;-78
2022/12/01 09:29:00;;;;;;;67.77;38.03;;;1.10;99.90;;;;;;8368367;28;20189;-79
2022/12/01 09:33:01;;;;;;;46.83;26.13;;;1.10;99.90;;;;;;8371863;28;20225;-78
2022/12/01 09:37:02;;;;;;;51.57;27.80;;;1.20;99.90;;;;;;8381964;28;20193;-78
2022/12/01 09:41:15;;;;;;;42.33;23.83;;;1.30;99.90;;;;;;8368321;28;20319;-79
2022/12/01 09:45:34;;;;;;;49.47;27.87;;;1.40;99.90;;;;;;8376275;28;20193;-78
2022/12/01 09:49:54;;;;;;;46.40;27.17;;;1.50;99.90;;;;;;8371849;28;20289;-79
2022/12/01 09:53:58;;;;;;;57.20;30.23;;;1.60;99.90;;;;;;8369861;28;20200;-77
2022/12/01 09:58:01;;;;;;;46.47;26.87;;;1.70;99.90;;;;;;8369315;28;20208;-78
2022/12/01 10:02:12;;;;;;;48.40;26.90;;;1.90;99.90;;;;;;8364794;28;20221;-78
2022/12/01 10:06:19;;;;;;;48.33;27.83;;;2.10;99.90;;;;;;8384051;28;20260;-78
2022/12/01 10:10:30;;;;;;;50.23;26.53;;;2.30;22.00;;;;;;8363752;28;20231;-77
2022/12/01 10:14:34;;;;;;;37.83;20.53;;;2.30;1.00;;;;;;8367237;28;20198;-78
2022/12/01 10:18:44;;;;;;;35.70;20.83;;;2.40;1.00;;;;;;8363287;28;20237;-78
2022/12/01 10:22:54;;;;;;;54.77;28.43;;;2.40;1.00;;;;;;8369925;28;20202;-78
2022/12/01 10:27:07;;;;;;;41.80;23.77;;;2.40;1.00;;;;;;8374321;28;20228;-78
2022/12/01 10:31:23;;;;;;;41.53;24.20;;;2.50;1.00;;;;;;8375179;28;20210;-78
2022/12/01 10:35:35;;;;;;;52.07;28.70;;;2.60;1.00;;;;;;8371077;28;20182;-78
2022/12/01 10:39:41;;;;;;;58.03;33.83;;;2.60;1.00;;;;;;8369998;28;20261;-78
2022/12/01 10:43:47;;;;;;;63.77;33.63;;;2.60;1.00;;;;;;8366273;28;20227;-78
2022/12/01 10:48:10;;;;;;;68.60;33.33;;;2.70;1.00;;;;;;8366256;28;20201;-78
2022/12/01 10:52:39;;;;;;;61.57;29.63;;;2.80;1.00;;;;;;8364998;28;20188;-78
2022/12/01 10:56:42;;;;;;;37.77;23.20;;;2.90;1.00;;;;;;8372839;28;20233;-78
2022/12/01 11:00:53;;;;;;;39.70;22.57;;;2.90;1.00;;;;;;8383005;28;20973;-78
2022/12/01 11:04:56;;;;;;;36.57;22.20;;;2.90;1.00;;;;;;8368770;28;20217;-78
2022/12/01 11:09:04;;;;;;;49.77;26.17;;;2.80;1.00;;;;;;8370581;28;20281;-78
2022/12/01 11:13:06;;;;;;;44.47;24.20;;;2.80;1.00;;;;;;8364902;28;20186;-78
2022/12/01 11:17:25;;;;;;;40.77;24.83;;;2.80;1.00;;;;;;8373914;28;20575;-79
2022/12/01 11:21:27;;;;;;;42.87;23.67;;;2.80;1.00;;;;;;8378136;28;20189;-78
2022/12/01 11:25:28;;;;;;;40.30;23.90;;;2.70;1.00;;;;;;8380509;28;20184;-78
2022/12/01 11:29:36;;;;;;;44.77;26.43;;;2.60;1.00;;;;;;8375050;28;20201;-78
2022/12/01 11:33:51;;;;;;;45.47;25.43;;;2.60;1.00;;;;;;8371035;28;20239;-78
2022/12/01 11:37:55;;;;;;;47.93;27.20;;;2.60;1.00;;;;;;8377510;28;20198;-78
2022/12/01 11:41:59;;;;;;;50.03;28.00;;;2.50;1.00;;;;;;8371997;28;20213;-79
2022/12/01 11:46:06;;;;;;;51.43;28.90;;;2.50;1.00;;;;;;8368986;28;20222;-78
2022/12/01 11:50:24;;;;;;;45.87;27.00;;;2.40;2.20;;;;;;8370330;28;20185;-79
2022/12/01 11:54:25;;;;;;;42.53;27.73;;;2.40;1.00;;;;;;8373428;28;20627;-78
2022/12/01 11:58:26;;;;;;;50.90;26.67;;;2.40;17.90;;;;;;8378320;28;20249;-78
2022/12/01 12:02:57;;;;;;;46.20;24.87;;;2.40;38.80;;;;;;8375819;28;20217;-78
2022/12/01 12:07:17;;;;;;;48.93;27.10;;;2.40;12.30;;;;;;8376288;28;20177;-79
2022/12/01 12:11:48;;;;;;;43.97;27.97;;;2.40;45.60;;;;;;8377430;28;20185;-79
2022/12/01 12:16:01;;;;;;;45.73;24.37;;;2.50;66.90;;;;;;8370037;28;20255;-78
2022/12/01 12:20:28;;;;;;;53.50;29.50;;;2.60;31.30;;;;;;8375116;28;20178;-79
2022/12/01 12:24:35;;;;;;;52.17;31.23;;;2.70;1.00;;;;;;8375913;28;20239;-79
2022/12/01 12:28:54;;;;;;;44.27;25.57;;;2.70;1.00;;;;;;8374440;28;20181;-79
2022/12/01 12:33:14;;;;;;;38.60;23.50;;;2.70;1.00;;;;;;8379432;28;20360;-79
2022/12/01 12:37:43;;;;;;;52.20;26.03;;;2.60;1.00;;;;;;8375608;28;20186;-79
2022/12/01 12:41:45;;;;;;;46.73;27.80;;;2.60;1.00;;;;;;8376449;28;20205;-78
2022/12/01 12:46:06;;;;;;;53.73;31.30;;;2.50;1.00;;;;;;8368721;28;20225;-78
2022/12/01 12:50:25;;;;;;;53.10;29.60;;;2.40;16.20;;;;;;8376935;28;20190;-78
2022/12/01 12:54:31;;;;;;;51.03;27.90;;;2.40;40.40;;;;;;8378065;28;20188;-78
2022/12/01 12:58:48;;;;;;;55.03;30.33;;;2.40;62.60;;;;;;8379862;28;20279;-78
2022/12/01 13:02:53;;;;;;;144.53;63.83;;;2.30;87.30;;;;;;8367346;28;20202;-78
2022/12/01 13:07:06;;;;;;;58.53;30.67;;;2.30;76.00;;;;;;8386053;28;20192;-78
2022/12/01 13:11:32;;;;;;;52.27;30.40;;;2.30;90.70;;;;;;8381060;28;20185;-78
2022/12/01 13:15:35;;;;;;;87.53;40.47;;;2.20;96.20;;;;;;8368368;28;20197;-78
2022/12/01 13:19:39;;;;;;;171.63;67.27;;;2.20;99.90;;;;;;8385037;28;20193;-78
2022/12/01 13:23:40;;;;;;;75.13;38.30;;;2.20;99.90;;;;;;8373751;28;20209;-78
2022/12/01 13:27:46;;;;;;;59.73;29.97;;;2.20;99.90;;;;;;8369783;28;20267;-78
2022/12/01 13:31:50;;;;;;;65.50;31.47;;;2.20;99.90;;;;;;8377033;28;20208;-79
2022/12/01 13:35:53;;;;;;;62.97;33.57;;;2.20;99.90;;;;;;8370216;28;20205;-79
2022/12/01 13:39:55;;;;;;;198.03;72.30;;;2.20;99.90;;;;;;8367231;28;20224;-78
2022/12/01 13:44:05;;;;;;;78.07;37.23;;;2.10;99.90;;;;;;8371930;28;20232;-78
2022/12/01 13:48:25;;;;;;;72.80;39.13;;;2.10;99.90;;;;;;8367730;28;20189;-78
2022/12/01 13:52:29;;;;;;;53.20;33.77;;;2.10;99.90;;;;;;8367079;28;20178;-78
2022/12/01 13:56:33;;;;;;;49.90;29.03;;;2.10;99.90;;;;;;8365188;28;20201;-78
2022/12/01 14:00:34;;;;;;;87.13;40.20;;;2.00;99.90;;;;;;8373576;28;20216;-78
2022/12/01 14:04:36;;;;;;;97.87;42.93;;;2.00;99.90;;;;;;8368190;28;20197;-78
2022/12/01 14:08:46;;;;;;;53.07;31.33;;;2.00;99.90;;;;;;8374413;28;20174;-78
2022/12/01 14:12:49;;;;;;;75.60;37.53;;;2.00;99.90;;;;;;8374724;28;20182;-78
2022/12/01 14:16:57;;;;;;;57.13;31.87;;;2.00;99.90;;;;;;8365098;28;20181;-78
2022/12/01 14:21:00;;;;;;;96.07;41.17;;;2.00;99.90;;;;;;8367482;28;20189;-78
2022/12/01 14:25:02;;;;;;;125.60;49.47;;;2.00;99.90;;;;;;8367728;28;20210;-78
2022/12/01 14:29:03;;;;;;;132.93;54.37;;;1.90;99.90;;;;;;8367260;28;20202;-78
2022/12/01 14:33:35;;;;;;;157.80;57.67;;;1.90;99.90;;;;;;8368348;28;20208;-78
2022/12/01 14:37:40;;;;;;;111.87;51.77;;;1.90;99.90;;;;;;8368419;28;20193;-78
2022/12/01 14:41:54;;;;;;;67.03;36.90;;;1.90;99.90;;;;;;8367533;28;20272;-79
2022/12/01 14:46:07;;;;;;;68.77;39.43;;;1.90;99.90;;;;;;8374817;28;20193;-79
2022/12/01 14:50:21;;;;;;;65.70;37.23;;;1.90;99.90;;;;;;8367593;28;20185;-78
2022/12/01 14:54:31;;;;;;;68.93;38.97;;;1.90;99.90;;;;;;8364002;28;20190;-79
2022/12/01 14:58:32;;;;;;;64.60;38.00;;;1.80;99.90;;;;;;8365707;28;20213;-79
2022/12/01 15:02:38;;;;;;;70.30;44.67;;;1.80;99.90;;;;;;8366267;28;20205;-79
2022/12/01 15:06:39;;;;;;;57.70;34.67;;;1.80;99.90;;;;;;8365762;28;20480;-78
2022/12/01 15:10:51;;;;;;;59.43;31.30;;;1.80;99.90;;;;;;8370235;28;20209;-79
2022/12/01 15:14:52;;;;;;;53.30;31.73;;;1.80;99.90;;;;;;8367023;28;20224;-79
2022/12/01 15:18:53;;;;;;;55.90;35.17;;;1.80;99.90;;;;;;8368183;28;20185;-78
2022/12/01 15:22:55;;;;;;;165.20;62.27;;;1.80;99.90;;;;;;8368033;28;20209;-79
2022/12/01 15:26:57;;;;;;;114.03;46.00;;;1.80;99.90;;;;;;8366655;28;20199;-79
2022/12/01 15:31:00;;;;;;;69.33;36.40;;;1.80;99.90;;;;;;8365823;28;20205;-78
2022/12/01 15:35:03;;;;;;;102.97;45.50;;;1.80;99.90;;;;;;8363499;28;20181;-78
2022/12/01 15:39:09;;;;;;;189.87;83.10;;;1.80;99.90;;;;;;8353732;28;20284;-79
2022/12/01 15:43:20;;;;;;;58.93;31.83;;;1.80;99.90;;;;;;8363204;28;20247;-78
2022/12/01 15:47:39;;;;;;;75.33;32.83;;;1.80;99.90;;;;;;8368340;28;20209;-78
2022/12/01 15:51:41;;;;;;;129.20;49.63;;;1.70;99.90;;;;;;8374517;28;20195;-78
2022/12/01 15:55:46;;;;;;;83.93;39.00;;;1.80;99.90;;;;;;8365916;28;20215;-78
2022/12/01 15:59:53;;;;;;;46.13;25.77;;;1.70;99.90;;;;;;8366337;28;20205;-79
2022/12/01 16:04:03;;;;;;;67.93;31.17;;;1.70;99.90;;;;;;8373515;28;20211;-79
2022/12/01 16:08:19;;;;;;;92.23;40.73;;;1.70;99.90;;;;;;8370037;28;20334;-78
2022/12/01 16:12:26;;;;;;;55.23;28.40;;;1.70;99.90;;;;;;8373512;28;20182;-78
2022/12/01 16:16:34;;;;;;;75.00;37.43;;;1.70;99.90;;;;;;8373492;28;20197;-78
2022/12/01 16:20:41;;;;;;;68.33;34.50;;;1.70;99.90;;;;;;8377363;28;20178;-79
2022/12/01 16:24:54;;;;;;;131.87;56.60;;;1.70;99.90;;;;;;8378518;28;20207;-78
2022/12/01 16:28:56;;;;;;;55.83;31.43;;;1.70;99.90;;;;;;8371358;28;21011;-78
2022/12/01 16:33:11;;;;;;;62.83;33.40;;;1.70;99.90;;;;;;8369536;28;20304;-79
2022/12/01 16:37:13;;;;;;;47.17;25.03;;;1.70;99.90;;;;;;8386093;28;20261;-78
2022/12/01 16:41:31;;;;;;;67.83;35.57;;;1.70;99.90;;;;;;8390787;28;20276;-78
2022/12/01 16:45:32;;;;;;;128.23;49.53;;;1.70;99.90;;;;;;8367605;28;20188;-78
2022/12/01 16:49:32;;;;;;;94.70;37.47;;;1.70;99.90;;;;;;8374862;28;20197;-78
2022/12/01 16:53:34;;;;;;;37.83;20.67;;;1.70;99.90;;;;;;8371725;28;20242;-78
2022/12/01 16:57:35;;;;;;;43.87;24.97;;;1.70;99.90;;;;;;8369217;28;20212;-79
2022/12/01 17:01:35;;;;;;;45.83;23.57;;;1.70;99.90;;;;;;8373032;28;20291;-78
2022/12/01 17:05:36;;;;;;;48.73;27.00;;;1.70;99.90;;;;;;8372051;28;20186;-79
2022/12/01 17:09:37;;;;;;;41.67;26.90;;;1.70;99.90;;;;;;8368970;28;20178;-78
2022/12/01 17:13:38;;;;;;;38.93;22.47;;;1.70;99.90;;;;;;8368655;28;20203;-78
2022/12/01 17:17:39;;;;;;;54.73;25.63;;;1.70;99.90;;;;;;8369589;28;20204;-78
2022/12/01 17:21:40;;;;;;;40.13;23.30;;;1.80;99.90;;;;;;8367503;28;20190;-78
2022/12/01 17:25:41;;;;;;;44.50;24.37;;;1.80;99.90;;;;;;8366341;28;20181;-79
2022/12/01 17:29:43;;;;;;;34.97;20.43;;;1.80;99.90;;;;;;8367654;28;20195;-78
2022/12/01 17:33:45;;;;;;;35.50;21.23;;;1.70;99.90;;;;;;8373933;28;20225;-78
2022/12/01 17:37:46;;;;;;;36.03;23.87;;;1.80;99.90;;;;;;8372476;28;20268;-78
2022/12/01 17:41:46;;;;;;;50.80;25.20;;;1.80;99.90;;;;;;8373080;28;20224;-78
2022/12/01 17:45:47;;;;;;;27.10;18.07;;;1.80;99.90;;;;;;8370948;28;20651;-79
2022/12/01 17:49:48;;;;;;;33.70;19.97;;;1.70;99.90;;;;;;8368136;28;20210;-78
2022/12/01 17:53:49;;;;;;;28.73;19.27;;;1.80;99.90;;;;;;8367287;28;20189;-78
2022/12/01 17:57:50;;;;;;;31.33;19.43;;;1.70;99.90;;;;;;8371978;28;20197;-78
2022/12/01 18:01:51;;;;;;;39.23;22.20;;;1.70;99.90;;;;;;8366696;28;20234;-78
2022/12/01 18:05:56;;;;;;;48.10;25.63;;;1.70;99.90;;;;;;8370007;28;20185;-79
2022/12/01 18:09:57;;;;;;;36.47;22.67;;;1.70;99.90;;;;;;8366778;28;20189;-78
2022/12/01 18:13:59;;;;;;;69.13;38.57;;;1.80;99.90;;;;;;8368487;28;20187;-78
2022/12/01 18:18:00;;;;;;;68.50;40.90;;;1.80;99.90;;;;;;8368612;28;20189;-78
2022/12/01 18:22:01;;;;;;;98.40;57.83;;;1.80;99.90;;;;;;8365734;28;20230;-79
2022/12/01 18:26:08;;;;;;;73.73;52.77;;;1.80;99.90;;;;;;8369128;28;20178;-78
2022/12/01 18:30:09;;;;;;;53.47;32.70;;;1.90;99.90;;;;;;8368527;28;20198;-78
2022/12/01 18:34:11;;;;;;;70.53;40.23;;;1.80;99.90;;;;;;8367233;28;20451;-78
2022/12/01 18:38:11;;;;;;;53.47;28.13;;;1.80;99.90;;;;;;8366107;28;20189;-78
2022/12/01 18:42:12;;;;;;;36.57;21.33;;;1.80;99.90;;;;;;8368851;28;20202;-78
2022/12/01 18:46:20;;;;;;;71.60;31.57;;;1.80;99.90;;;;;;8369342;28;20220;-79
2022/12/01 18:50:21;;;;;;;37.13;18.60;;;1.80;99.90;;;;;;8369581;28;20205;-79
2022/12/01 18:54:22;;;;;;;34.33;23.50;;;1.80;99.90;;;;;;8369629;28;20186;-79
2022/12/01 18:58:22;;;;;;;25.33;16.07;;;1.80;99.90;;;;;;8370061;28;20292;-78
2022/12/01 19:02:23;;;;;;;39.47;20.53;;;1.80;99.90;;;;;;8352044;28;20250;-79
2022/12/01 19:06:25;;;;;;;52.60;28.53;;;1.70;99.90;;;;;;8367808;28;20178;-80
2022/12/01 19:10:26;;;;;;;73.50;37.10;;;1.80;99.90;;;;;;8387303;28;20212;-79
2022/12/01 19:14:27;;;;;;;52.80;29.37;;;1.80;99.90;;;;;;8368843;28;20189;-79
2022/12/01 19:18:28;;;;;;;73.73;36.90;;;1.80;99.90;;;;;;8375334;28;20187;-79
2022/12/01 19:22:31;;;;;;;71.23;36.97;;;1.80;99.90;;;;;;8372114;28;20209;-79
2022/12/01 19:26:32;;;;;;;43.50;24.03;;;1.80;99.90;;;;;;8368734;28;20173;-79
2022/12/01 19:30:33;;;;;;;39.63;22.97;;;1.80;99.90;;;;;;8364420;28;20344;-80
2022/12/01 19:34:34;;;;;;;68.00;36.50;;;1.80;99.90;;;;;;8369593;28;20197;-78
2022/12/01 19:38:36;;;;;;;62.37;29.87;;;1.80;99.90;;;;;;8377967;28;20185;-78
2022/12/01 19:42:37;;;;;;;53.63;27.97;;;1.80;99.90;;;;;;8374671;28;20623;-80
2022/12/01 19:46:38;;;;;;;49.37;29.90;;;1.80;99.90;;;;;;8375238;28;20322;-79
2022/12/01 19:50:38;;;;;;;48.80;27.13;;;1.80;99.90;;;;;;8371424;28;20178;-78
2022/12/01 19:54:39;;;;;;;45.40;25.97;;;1.80;99.90;;;;;;8379535;28;20181;-78
2022/12/01 19:58:40;;;;;;;42.47;24.23;;;1.80;99.90;;;;;;8372103;28;20248;-78
2022/12/01 20:02:41;;;;;;;79.07;36.57;;;1.90;99.90;;;;;;8371715;28;20205;-78
2022/12/01 20:06:42;;;;;;;66.13;34.13;;;1.90;99.90;;;;;;8371015;28;20173;-79
2022/12/01 20:10:47;;;;;;;69.93;34.10;;;1.90;99.90;;;;;;8376886;28;20181;-79
2022/12/01 20:14:49;;;;;;;64.63;32.43;;;1.90;99.90;;;;;;8371901;28;20191;-80
2022/12/01 20:18:50;;;;;;;68.10;30.90;;;1.80;99.90;;;;;;8378076;28;20177;-79
2022/12/01 20:22:51;;;;;;;53.67;27.33;;;1.80;99.90;;;;;;8371307;28;20208;-79
2022/12/01 20:26:55;;;;;;;73.90;34.70;;;1.80;99.90;;;;;;8375297;28;20272;-81
2022/12/01 20:30:57;;;;;;;138.17;55.27;;;1.90;99.90;;;;;;8378749;28;20201;-79
2022/12/01 20:34:58;;;;;;;44.20;22.57;;;1.80;99.90;;;;;;8377271;28;20177;-81
2022/12/01 20:38:59;;;;;;;72.80;33.27;;;1.80;99.90;;;;;;8372283;28;20205;-80
2022/12/01 20:42:59;;;;;;;67.80;31.87;;;1.80;99.90;;;;;;8371778;28;20216;-78
2022/12/01 20:47:00;;;;;;;41.13;24.43;;;1.80;99.90;;;;;;8376148;28;20200;-79
2022/12/01 20:51:03;;;;;;;42.90;23.93;;;1.80;99.90;;;;;;8374070;28;20177;-79
2022/12/01 20:55:04;;;;;;;39.03;21.93;;;1.80;99.90;;;;;;8389502;28;20218;-78
2022/12/01 20:59:06;;;;;;;32.00;19.03;;;1.80;99.90;;;;;;8367021;28;20288;-78
2022/12/01 21:03:07;;;;;;;32.37;20.00;;;1.80;99.90;;;;;;8377936;28;20222;-79